Atalandi — SVBA — position and weather

sailwx.info

Track history (hours):
 
Tides and Currents Weather Stations Pressure Air Temp Water Temp Dewpoint Dewpoint Depression Visibility Wind Speed Wind Dir Waves Ship Positions

Atalandi

Last reported at 2014-Dec-16 23:13 UTC. Time now 2014-Dec-17 19:59 UTC.
Position N 36°37' E 013°45'.

Length 248 m; draft 13.6 m.

Type: Tanker. MMSI: 240269000.

Date/timePositionNaut miles runAvg speedWind from/ knotsBaromVisibWave heightAir tempDewpointWater temp
2014-Dec-16 23:13N 36°37' E 013°45'812.2
2014-Dec-16 22:33N 36°34' E 013°55'1212.5
2014-Dec-16 21:33N 36°31' E 014°10'1312.8
2014-Dec-16 20:33N 36°28' E 014°25'42811.2
2014-Dec-15 06:16N 36°27' E 023°17'1313.7
2014-Dec-15 05:21N 36°38' E 023°25'1113.5
2014-Dec-15 04:32N 36°47' E 023°32'1313.6
2014-Dec-15 03:33N 36°58' E 023°41'1413.9
2014-Dec-15 02:31N 37°11' E 023°50'1413.7
2014-Dec-15 01:32N 37°22' E 023°59'1414.4
2014-Dec-15 00:33N 37°34' E 024°08'1414.0
2014-Dec-14 23:33N 37°46' E 024°18'1313.6
2014-Dec-14 22:33N 37°54' E 024°31'1714.2
2014-Dec-14 21:22N 38°08' E 024°43'1214.0
2014-Dec-14 20:29N 38°19' E 024°51'1413.5
2014-Dec-14 19:28N 38°32' E 024°59'1613.6
2014-Dec-14 18:16N 38°46' E 025°08'  
2014-Dec-10 07:30N 41°14' E 029°08'8 9.0
2014-Dec-10 06:33N 41°19' E 029°17'2 1.9
2014-Dec-10 05:32N 41°20' E 029°19'2 2.4
2014-Dec-10 04:29N 41°22' E 029°16'2 2.3
2014-Dec-10 03:32N 41°23' E 029°14'10 0.7
2014-Dec-09 14:07N 41°22' E 029°01'610.8
2014-Dec-09 13:33N 41°19' E 029°08'1312.9
2014-Dec-09 12:33N 41°20' E 029°25'1110.3
2014-Dec-09 11:32N 41°20' E 029°39'1 1.0
2014-Dec-09 10:32N 41°20' E 029°38'1 0.9
2014-Dec-09 09:32N 41°21' E 029°37'1 0.9
2014-Dec-09 08:32N 41°21' E 029°36'1 0.8
2014-Dec-09 07:32N 41°21' E 029°35'1 0.9
2014-Dec-09 06:32N 41°22' E 029°34'1 1.0
2014-Dec-09 05:32N 41°22' E 029°33'1 1.0
2014-Dec-09 04:32N 41°23' E 029°32'1 1.2
2014-Dec-09 03:32N 41°24' E 029°31'7 1.2
2014-Dec-08 21:32N 41°26' E 029°22'3 3.1
2014-Dec-08 20:33N 41°25' E 029°25'1212.4
2014-Dec-08 19:33N 41°25' E 029°42'1 0.6
2014-Dec-08 17:06N 41°26' E 029°42'1 1.1
2014-Dec-08 16:33N 41°27' E 029°42'1 1.1
2014-Dec-08 15:33N 41°27' E 029°40'1 1.1
2014-Dec-08 14:33N 41°28' E 029°39'1 1.0
2014-Dec-08 13:33N 41°28' E 029°38'1 1.0
2014-Dec-08 12:32N 41°29' E 029°37'1 1.0
2014-Dec-08 11:32N 41°29' E 029°36'1 0.9
2014-Dec-08 10:32N 41°30' E 029°35'1 0.9
2014-Dec-08 09:32N 41°30' E 029°33'1 1.1
2014-Dec-08 08:32N 41°30' E 029°32'1 1.5
2014-Dec-08 07:33N 41°31' E 029°31'9 3.8
2014-Dec-08 05:12N 41°30' E 029°43'1 0.8
2014-Dec-08 04:33N 41°30' E 029°42'5 0.8
2014-Dec-07 22:04N 41°26' E 029°37'5 0.3
2014-Dec-07 06:24N 41°27' E 029°43'1 0.8
2014-Dec-07 05:33N 41°28' E 029°42'1 0.7
2014-Dec-07 04:33N 41°28' E 029°41'1 0.6
2014-Dec-07 03:33N 41°28' E 029°40'  
Track history (hours):
 
Tides and Currents Weather Stations Pressure Air Temp Water Temp Dewpoint Dewpoint Depression Visibility Wind Speed Wind Dir Waves Ship Positions

Atalandi

Last reported at 2014-Dec-16 23:13 UTC. Time now 2014-Dec-17 19:59 UTC.
Position N 36°37' E 013°45'.

Length 248 m; draft 13.6 m.

Type: Tanker. MMSI: 240269000.

Date/timePositionNaut miles runAvg speedWind from/ knotsBaromVisibWave heightAir tempDewpointWater temp
2014-Dec-16 23:13N 36°37' E 013°45'812.2
2014-Dec-16 22:33N 36°34' E 013°55'1212.5
2014-Dec-16 21:33N 36°31' E 014°10'1312.8
2014-Dec-16 20:33N 36°28' E 014°25'42811.2
2014-Dec-15 06:16N 36°27' E 023°17'1313.7
2014-Dec-15 05:21N 36°38' E 023°25'1113.5
2014-Dec-15 04:32N 36°47' E 023°32'1313.6
2014-Dec-15 03:33N 36°58' E 023°41'1413.9
2014-Dec-15 02:31N 37°11' E 023°50'1413.7
2014-Dec-15 01:32N 37°22' E 023°59'1414.4
2014-Dec-15 00:33N 37°34' E 024°08'1414.0
2014-Dec-14 23:33N 37°46' E 024°18'1313.6
2014-Dec-14 22:33N 37°54' E 024°31'1714.2
2014-Dec-14 21:22N 38°08' E 024°43'1214.0
2014-Dec-14 20:29N 38°19' E 024°51'1413.5
2014-Dec-14 19:28N 38°32' E 024°59'1613.6
2014-Dec-14 18:16N 38°46' E 025°08'  
2014-Dec-10 07:30N 41°14' E 029°08'8 9.0
2014-Dec-10 06:33N 41°19' E 029°17'2 1.9
2014-Dec-10 05:32N 41°20' E 029°19'2 2.4
2014-Dec-10 04:29N 41°22' E 029°16'2 2.3
2014-Dec-10 03:32N 41°23' E 029°14'10 0.7
2014-Dec-09 14:07N 41°22' E 029°01'610.8
2014-Dec-09 13:33N 41°19' E 029°08'1312.9
2014-Dec-09 12:33N 41°20' E 029°25'1110.3
2014-Dec-09 11:32N 41°20' E 029°39'1 1.0
2014-Dec-09 10:32N 41°20' E 029°38'1 0.9
2014-Dec-09 09:32N 41°21' E 029°37'1 0.9
2014-Dec-09 08:32N 41°21' E 029°36'1 0.8
2014-Dec-09 07:32N 41°21' E 029°35'1 0.9
2014-Dec-09 06:32N 41°22' E 029°34'1 1.0
2014-Dec-09 05:32N 41°22' E 029°33'1 1.0
2014-Dec-09 04:32N 41°23' E 029°32'1 1.2
2014-Dec-09 03:32N 41°24' E 029°31'7 1.2
2014-Dec-08 21:32N 41°26' E 029°22'3 3.1
2014-Dec-08 20:33N 41°25' E 029°25'1212.4
2014-Dec-08 19:33N 41°25' E 029°42'1 0.6
2014-Dec-08 17:06N 41°26' E 029°42'1 1.1
2014-Dec-08 16:33N 41°27' E 029°42'1 1.1
2014-Dec-08 15:33N 41°27' E 029°40'1 1.1
2014-Dec-08 14:33N 41°28' E 029°39'1 1.0
2014-Dec-08 13:33N 41°28' E 029°38'1 1.0
2014-Dec-08 12:32N 41°29' E 029°37'1 1.0
2014-Dec-08 11:32N 41°29' E 029°36'1 0.9
2014-Dec-08 10:32N 41°30' E 029°35'1 0.9
2014-Dec-08 09:32N 41°30' E 029°33'1 1.1
2014-Dec-08 08:32N 41°30' E 029°32'1 1.5
2014-Dec-08 07:33N 41°31' E 029°31'9 3.8
2014-Dec-08 05:12N 41°30' E 029°43'1 0.8
2014-Dec-08 04:33N 41°30' E 029°42'5 0.8
2014-Dec-07 22:04N 41°26' E 029°37'5 0.3
2014-Dec-07 06:24N 41°27' E 029°43'1 0.8
2014-Dec-07 05:33N 41°28' E 029°42'1 0.7
2014-Dec-07 04:33N 41°28' E 029°41'1 0.6
2014-Dec-07 03:33N 41°28' E 029°40'  

Dump ship's entire track history